createdAt,value
2023-03-03T00:01:15.834Z,101069.47
2023-03-03T00:03:43.808Z,101068.91
2023-03-03T00:06:14.860Z,101069.19
2023-03-03T00:08:44.393Z,101064.63
2023-03-03T00:11:15.694Z,101065.47
2023-03-03T00:13:45.118Z,101063.78
2023-03-03T00:16:18.383Z,101064.06
2023-03-03T00:18:46.156Z,101061.19
2023-03-03T00:21:14.175Z,101070.34
2023-03-03T00:23:42.824Z,101070.34
2023-03-03T00:26:11.397Z,101063.91
2023-03-03T00:28:44.325Z,101068.66
2023-03-03T00:31:17.694Z,101061.50
2023-03-03T00:33:46.602Z,101061.50
2023-03-03T00:36:15.311Z,101058.78
2023-03-03T00:38:43.083Z,101063.66
2023-03-03T00:41:15.210Z,101053.78
2023-03-03T00:43:43.865Z,101063.34
2023-03-03T00:46:11.713Z,101066.06
2023-03-03T00:48:45.002Z,101070.91
2023-03-03T00:51:15.135Z,101080.34
2023-03-03T00:53:43.106Z,101077.75
2023-03-03T00:56:15.639Z,101079.34
2023-03-03T00:58:44.354Z,101074.81
2023-03-03T01:01:12.426Z,101061.25
2023-03-03T01:03:40.236Z,101068.25
2023-03-03T01:06:10.095Z,101080.06
2023-03-03T01:08:38.343Z,101076.91
2023-03-03T01:11:06.077Z,101069.22
2023-03-03T01:13:43.052Z,101067.53
2023-03-03T01:16:13.725Z,101081.22
2023-03-03T01:18:41.853Z,101071.22
2023-03-03T01:21:11.924Z,101063.09
2023-03-03T01:23:45.116Z,101055.97
2023-03-03T01:26:13.243Z,101046.81
2023-03-03T01:28:43.956Z,101052.97
2023-03-03T01:31:12.803Z,101052.09
2023-03-03T01:33:41.219Z,101049.81
2023-03-03T01:36:09.336Z,101049.41
2023-03-03T01:38:37.751Z,101046.56
2023-03-03T01:41:05.568Z,101046.38
2023-03-03T01:43:33.602Z,101051.97
2023-03-03T01:46:02.867Z,101049.53
2023-03-03T01:48:32.560Z,101050.84
2023-03-03T01:51:01.651Z,101041.69
2023-03-03T01:53:29.520Z,101039.00
2023-03-03T01:55:57.285Z,101045.56
2023-03-03T01:58:25.219Z,101054.53
2023-03-03T02:00:53.189Z,101057.81
2023-03-03T02:03:21.240Z,101056.97
2023-03-03T02:05:49.069Z,101062.41
2023-03-03T02:08:16.820Z,101056.41
2023-03-03T02:10:46.599Z,101057.53
2023-03-03T02:13:14.583Z,101062.41
2023-03-03T02:15:42.559Z,101061.56
2023-03-03T02:18:12.961Z,101056.16
2023-03-03T02:20:44.420Z,101059.56
2023-03-03T02:23:12.189Z,101064.13
2023-03-03T02:25:40.111Z,101062.56
2023-03-03T02:28:07.961Z,101067.00
2023-03-03T02:30:35.725Z,101062.72
2023-03-03T02:33:03.559Z,101066.13
2023-03-03T02:35:33.584Z,101062.56
2023-03-03T02:38:03.469Z,101064.56
2023-03-03T02:40:32.863Z,101067.28
2023-03-03T02:43:00.593Z,101059.84
2023-03-03T02:45:28.380Z,101078.13
2023-03-03T02:47:56.944Z,101075.53
2023-03-03T02:50:25.328Z,101067.97
2023-03-03T02:52:55.943Z,101072.41
2023-03-03T02:55:24.299Z,101057.84
2023-03-03T02:57:52.216Z,101054.72
2023-03-03T03:00:21.437Z,101052.13
2023-03-03T03:02:49.832Z,101044.28
2023-03-03T03:05:20.138Z,101040.44
2023-03-03T03:07:47.865Z,101030.75
2023-03-03T03:10:15.700Z,101023.63
2023-03-03T03:12:43.881Z,101021.78
2023-03-03T03:15:12.039Z,101025.75
2023-03-03T03:17:39.997Z,101030.03
2023-03-03T03:20:07.991Z,101023.63
2023-03-03T03:22:37.000Z,101028.88
2023-03-03T03:25:07.374Z,101040.75
2023-03-03T03:27:35.153Z,101041.75
2023-03-03T03:30:05.015Z,101051.72
2023-03-03T03:32:32.974Z,101053.44
2023-03-03T03:35:06.033Z,101055.97
2023-03-03T03:37:36.493Z,101059.72
2023-03-03T03:40:04.208Z,101074.41
2023-03-03T03:42:34.158Z,101072.25
2023-03-03T03:45:02.181Z,101074.53
2023-03-03T03:47:29.936Z,101072.97
2023-03-03T03:49:58.245Z,101067.13
2023-03-03T03:52:26.573Z,101059.88
2023-03-03T03:54:54.320Z,101050.88
2023-03-03T03:57:26.577Z,101056.28
2023-03-03T03:59:54.526Z,101059.88
2023-03-03T04:02:22.391Z,101065.84
2023-03-03T04:04:50.276Z,101069.56
2023-03-03T04:07:19.154Z,101070.13
2023-03-03T04:09:47.032Z,101072.84
2023-03-03T04:12:14.785Z,101077.13
2023-03-03T04:14:42.624Z,101076.28
2023-03-03T04:17:10.526Z,101077.00
2023-03-03T04:19:38.380Z,101075.97
2023-03-03T04:22:07.054Z,101072.53
2023-03-03T04:24:36.127Z,101077.97
2023-03-03T04:27:03.971Z,101080.97
2023-03-03T04:29:31.940Z,101077.72
2023-03-03T04:31:59.701Z,101071.44
2023-03-03T04:34:27.528Z,101077.84
2023-03-03T04:36:55.717Z,101088.38
2023-03-03T04:39:23.475Z,101089.69
2023-03-03T04:41:51.279Z,101082.97
2023-03-03T04:44:19.005Z,101092.66
2023-03-03T04:46:46.802Z,101092.53
2023-03-03T04:49:14.613Z,101087.97
2023-03-03T04:51:42.403Z,101083.25
2023-03-03T04:54:10.171Z,101079.69
2023-03-03T04:56:37.917Z,101078.38
2023-03-03T04:59:06.705Z,101081.09
2023-03-03T05:01:34.893Z,101076.81
2023-03-03T05:04:02.655Z,101083.38
2023-03-03T05:06:30.782Z,101085.97
2023-03-03T05:08:58.595Z,101091.94
2023-03-03T05:11:26.967Z,101083.97
2023-03-03T05:13:54.785Z,101091.25
2023-03-03T05:16:22.598Z,101091.66
2023-03-03T05:25:42.455Z,101099.63
2023-03-03T05:28:13.003Z,101098.50
2023-03-03T05:32:01.517Z,101096.66
2023-03-03T05:34:31.168Z,101101.22
2023-03-03T05:36:59.043Z,101104.78
2023-03-03T05:39:29.417Z,101096.50
2023-03-03T05:41:57.255Z,101096.38
2023-03-03T05:44:25.537Z,101097.09
2023-03-03T05:46:53.356Z,101099.81
2023-03-03T05:49:31.708Z,101089.94
2023-03-03T05:52:00.777Z,101091.69
2023-03-03T05:55:01.818Z,101083.69
2023-03-03T05:57:30.549Z,101090.09
2023-03-03T06:05:49.228Z,101095.78
2023-03-03T06:08:17.049Z,101100.78
2023-03-03T06:10:44.747Z,101109.19
2023-03-03T06:13:12.532Z,101119.31
2023-03-03T06:15:40.344Z,101124.59
2023-03-03T06:18:08.341Z,101122.91
2023-03-03T06:20:36.666Z,101123.75
2023-03-03T06:23:04.431Z,101124.59
2023-03-03T06:25:32.202Z,101129.72
2023-03-03T06:28:00.658Z,101129.44
2023-03-03T06:30:28.551Z,101125.75
2023-03-03T06:32:56.390Z,101130.75
2023-03-03T06:35:24.195Z,101123.03
2023-03-03T06:37:52.069Z,101122.03
2023-03-03T06:40:19.828Z,101122.03
2023-03-03T06:42:47.648Z,101120.75
2023-03-03T06:45:16.001Z,101118.03
2023-03-03T06:47:43.752Z,101128.03
2023-03-03T06:50:11.505Z,101132.56
2023-03-03T06:52:39.281Z,101125.47
2023-03-03T06:55:07.034Z,101134.00
2023-03-03T06:57:34.790Z,101135.44
2023-03-03T07:00:02.588Z,101146.41
2023-03-03T07:02:31.396Z,101151.97
2023-03-03T07:04:59.165Z,101166.66
2023-03-03T07:07:26.922Z,101168.09
2023-03-03T07:09:54.810Z,101169.66
2023-03-03T07:12:23.028Z,101172.38
2023-03-03T07:14:56.267Z,101168.81
2023-03-03T07:17:23.996Z,101171.66
2023-03-03T07:19:51.704Z,101163.38
2023-03-03T07:22:19.494Z,101173.22
2023-03-03T07:24:48.285Z,101171.38
2023-03-03T07:27:16.090Z,101183.06
2023-03-03T07:29:43.884Z,101181.09
2023-03-03T07:32:11.866Z,101186.75
2023-03-03T07:34:39.645Z,101182.34
2023-03-03T07:37:07.383Z,101177.78
2023-03-03T07:40:55.255Z,101193.31
2023-03-03T07:43:23.029Z,101202.34
2023-03-03T07:45:51.303Z,101198.47
2023-03-03T07:48:19.882Z,101201.44
2023-03-03T07:50:49.193Z,101189.63
2023-03-03T07:53:16.992Z,101197.91
2023-03-03T07:55:47.734Z,101196.47
2023-03-03T07:58:16.526Z,101204.31
2023-03-03T08:00:44.375Z,101197.91
2023-03-03T08:03:12.292Z,101205.72
2023-03-03T08:05:40.083Z,101202.16
2023-03-03T08:09:25.195Z,101209.88
2023-03-03T08:11:52.996Z,101201.31
2023-03-03T08:14:20.746Z,101193.91
2023-03-03T08:16:48.514Z,101197.59
2023-03-03T08:19:16.338Z,101192.78
2023-03-03T08:21:44.091Z,101205.47
2023-03-03T08:24:11.861Z,101200.75
2023-03-03T08:26:39.616Z,101198.75
2023-03-03T08:29:07.394Z,101194.91
2023-03-03T08:31:41.537Z,101201.75
2023-03-03T08:34:09.861Z,101199.91
2023-03-03T08:36:37.656Z,101199.91
2023-03-03T08:39:05.444Z,101199.91
2023-03-03T08:41:37.526Z,101208.16
2023-03-03T08:44:55.089Z,101205.59
2023-03-03T08:47:22.854Z,101214.28
2023-03-03T08:49:50.621Z,101197.19
2023-03-03T08:52:18.388Z,101203.59
2023-03-03T08:54:46.150Z,101207.31
2023-03-03T08:57:13.910Z,101222.72
2023-03-03T08:59:41.756Z,101221.88
2023-03-03T09:02:09.884Z,101225.25
2023-03-03T09:04:37.686Z,101221.28
2023-03-03T09:07:05.560Z,101232.13
2023-03-03T09:09:33.396Z,101223.28
2023-03-03T09:12:01.148Z,101226.00
2023-03-03T09:14:28.931Z,101221.56
2023-03-03T09:16:58.365Z,101222.56
2023-03-03T09:19:26.244Z,101221.88
2023-03-03T09:21:54.878Z,101226.84
2023-03-03T09:25:42.306Z,101218.88
2023-03-03T09:28:10.267Z,101214.59
2023-03-03T09:30:39.381Z,101214.72
2023-03-03T09:33:07.213Z,101221.03
2023-03-03T09:35:40.226Z,101225.25
2023-03-03T09:38:08.105Z,101230.00
2023-03-03T09:40:35.812Z,101221.88
2023-03-03T09:44:26.290Z,101225.25
2023-03-03T09:46:54.121Z,101233.41
2023-03-03T09:49:21.950Z,101229.00
2023-03-03T09:51:50.428Z,101230.97
2023-03-03T09:54:18.192Z,101224.88
2023-03-03T09:56:46.662Z,101213.31
2023-03-03T09:59:14.621Z,101214.28
2023-03-03T10:01:42.389Z,101217.44
2023-03-03T10:04:10.175Z,101216.44
2023-03-03T10:06:38.106Z,101207.31
2023-03-03T10:10:41.266Z,101230.56
2023-03-03T10:13:09.224Z,101227.00
2023-03-03T10:15:37.094Z,101234.13
2023-03-03T10:18:05.457Z,101228.13
2023-03-03T10:20:47.611Z,101224.28
2023-03-03T10:23:21.167Z,101234.00
2023-03-03T10:25:48.991Z,101227.44
2023-03-03T10:28:16.785Z,101229.41
2023-03-03T10:30:58.485Z,101222.31
2023-03-03T10:34:25.917Z,101231.28
2023-03-03T10:36:53.672Z,101221.28
2023-03-03T10:39:21.606Z,101223.88
2023-03-03T10:41:49.393Z,101221.84
2023-03-03T10:44:17.529Z,101222.28
2023-03-03T10:46:46.467Z,101217.16
2023-03-03T10:49:14.795Z,101227.25
2023-03-03T10:51:42.611Z,101224.97
2023-03-03T10:54:30.965Z,101225.28
2023-03-03T10:56:58.864Z,101227.84
2023-03-03T10:59:26.683Z,101227.97
2023-03-03T11:01:54.470Z,101224.72
2023-03-03T11:04:22.285Z,101227.44
2023-03-03T11:06:50.269Z,101222.69
2023-03-03T11:09:18.822Z,101220.16
2023-03-03T11:11:46.765Z,101219.44
2023-03-03T11:14:15.944Z,101216.16
2023-03-03T11:16:43.822Z,101221.41
2023-03-03T11:19:11.706Z,101216.00
2023-03-03T11:21:39.447Z,101206.59
2023-03-03T11:24:07.248Z,101209.16
2023-03-03T11:26:35.151Z,101207.56
2023-03-03T11:29:03.013Z,101213.00
2023-03-03T11:31:31.992Z,101218.41
2023-03-03T11:34:00.114Z,101213.00
2023-03-03T11:36:27.903Z,101215.03
2023-03-03T11:38:55.816Z,101215.03
2023-03-03T11:41:23.628Z,101207.03
2023-03-03T11:43:51.424Z,101208.72
2023-03-03T11:46:19.323Z,101210.56
2023-03-03T11:48:47.087Z,101209.59
2023-03-03T11:51:16.872Z,101215.03
2023-03-03T11:53:44.712Z,101212.56
2023-03-03T11:56:12.492Z,101210.88
2023-03-03T11:58:40.218Z,101213.28
2023-03-03T12:01:08.030Z,101210.56
2023-03-03T12:03:36.878Z,101200.47
2023-03-03T12:06:04.983Z,101208.03
2023-03-03T12:08:32.861Z,101202.44
2023-03-03T12:11:00.747Z,101194.31
2023-03-03T12:13:28.764Z,101194.31
2023-03-03T12:15:56.567Z,101191.03
2023-03-03T12:18:24.366Z,101191.47
2023-03-03T12:20:52.325Z,101195.03
2023-03-03T12:23:20.076Z,101181.47
2023-03-03T12:25:49.094Z,101179.91
2023-03-03T12:28:16.840Z,101171.78
2023-03-03T12:30:44.595Z,101170.63
2023-03-03T12:33:12.574Z,101170.63
2023-03-03T12:35:40.517Z,101174.50
2023-03-03T12:38:08.373Z,101172.31
2023-03-03T12:40:36.177Z,101173.34
2023-03-03T12:43:05.814Z,101169.78
2023-03-03T12:45:33.668Z,101171.78
2023-03-03T12:48:03.848Z,101168.63
2023-03-03T12:50:31.653Z,101166.78
2023-03-03T12:53:00.006Z,101161.66
2023-03-03T12:55:28.162Z,101161.66
2023-03-03T12:57:55.893Z,101165.94
2023-03-03T13:00:24.364Z,101162.34
2023-03-03T13:02:52.241Z,101157.06
2023-03-03T13:05:20.010Z,101156.06
2023-03-03T13:07:48.387Z,101147.94
2023-03-03T13:10:16.233Z,101146.47
2023-03-03T13:12:44.077Z,101142.78
2023-03-03T13:15:13.829Z,101147.91
2023-03-03T13:17:43.721Z,101133.94
2023-03-03T13:20:11.525Z,101138.94
2023-03-03T13:22:39.270Z,101142.19
2023-03-03T13:25:07.202Z,101153.03
2023-03-03T13:27:34.976Z,101152.91
2023-03-03T13:30:02.979Z,101149.47
2023-03-03T13:32:30.999Z,101157.03
2023-03-03T13:34:59.309Z,101143.78
2023-03-03T13:37:27.364Z,101150.34
2023-03-03T13:39:55.162Z,101146.78
2023-03-03T13:42:23.222Z,101150.94
2023-03-03T13:44:51.074Z,101144.78
2023-03-03T13:47:18.980Z,101138.94
2023-03-03T13:49:47.863Z,101142.50
2023-03-03T13:52:17.429Z,101144.91
2023-03-03T13:54:47.475Z,101146.47
2023-03-03T13:57:15.270Z,101143.78
2023-03-03T13:59:43.066Z,101141.06
2023-03-03T14:02:11.190Z,101123.09
2023-03-03T14:04:38.977Z,101130.22
2023-03-03T14:07:06.826Z,101125.63
2023-03-03T14:09:34.780Z,101118.38
2023-03-03T14:12:03.549Z,101106.53
2023-03-03T14:14:31.370Z,101104.53
2023-03-03T14:16:59.458Z,101101.53
2023-03-03T14:19:27.569Z,101099.97
2023-03-03T14:21:55.386Z,101096.41
2023-03-03T14:24:23.155Z,101092.22
2023-03-03T14:26:50.950Z,101091.22
2023-03-03T14:29:19.190Z,101096.19
2023-03-03T14:31:47.852Z,101090.06
2023-03-03T14:34:16.854Z,101090.47
2023-03-03T14:36:45.941Z,101098.13
2023-03-03T14:39:13.835Z,101092.63
2023-03-03T14:41:41.625Z,101086.84
2023-03-03T14:44:09.548Z,101086.16
2023-03-03T14:46:37.418Z,101092.16
2023-03-03T14:49:05.270Z,101083.31
2023-03-03T14:51:34.217Z,101068.97
2023-03-03T14:54:02.073Z,101072.59
2023-03-03T14:56:30.228Z,101079.66
2023-03-03T14:58:58.003Z,101078.00
2023-03-03T15:01:25.859Z,101084.19
2023-03-03T15:03:55.622Z,101078.13
2023-03-03T15:06:23.375Z,101081.03
2023-03-03T15:08:51.175Z,101078.44
2023-03-03T15:11:18.957Z,101079.97
2023-03-03T15:13:46.719Z,101075.88
2023-03-03T15:16:14.568Z,101073.81
2023-03-03T15:18:42.400Z,101080.09
2023-03-03T15:21:10.152Z,101070.94
2023-03-03T15:23:38.013Z,101071.97
2023-03-03T15:26:05.764Z,101074.69
2023-03-03T15:28:33.609Z,101074.53
2023-03-03T15:31:13.219Z,101071.81
2023-03-03T15:33:40.986Z,101077.63
2023-03-03T15:36:08.818Z,101076.00
2023-03-03T15:38:36.713Z,101065.25
2023-03-03T15:41:04.518Z,101059.94
2023-03-03T15:43:34.295Z,101065.69
2023-03-03T15:46:02.113Z,101067.06
2023-03-03T15:48:29.912Z,101069.03
2023-03-03T15:50:58.052Z,101071.13
2023-03-03T15:53:25.973Z,101062.41
2023-03-03T15:55:53.799Z,101054.69
2023-03-03T15:58:21.649Z,101062.97
2023-03-03T16:00:49.457Z,101060.72
2023-03-03T16:03:17.493Z,101068.03
2023-03-03T16:05:45.978Z,101069.34
2023-03-03T16:08:16.669Z,101067.28
2023-03-03T16:10:45.334Z,101070.16
2023-03-03T16:13:13.100Z,101059.78
2023-03-03T16:15:40.909Z,101064.66
2023-03-03T16:18:08.760Z,101064.13
2023-03-03T16:20:37.879Z,101065.34
2023-03-03T16:23:07.207Z,101057.09
2023-03-03T16:40:05.359Z,101075.84
2023-03-03T16:42:33.325Z,101070.94
2023-03-03T16:45:01.069Z,101079.28
2023-03-03T16:47:29.011Z,101071.84
2023-03-03T16:49:56.771Z,101077.72
2023-03-03T16:52:24.741Z,101060.84
2023-03-03T16:54:54.497Z,101073.63
2023-03-03T16:57:24.168Z,101078.56
2023-03-03T16:59:52.608Z,101071.88
2023-03-03T17:02:25.065Z,101075.63
2023-03-03T17:05:00.251Z,101084.75
2023-03-03T17:07:28.261Z,101078.91
2023-03-03T17:09:56.013Z,101081.09
2023-03-03T17:15:01.809Z,101081.50
2023-03-03T17:17:29.543Z,101084.47
2023-03-03T17:20:00.407Z,101080.34
2023-03-03T17:22:29.612Z,101081.84
2023-03-03T17:24:57.490Z,101078.06
2023-03-03T17:28:00.133Z,101087.38
2023-03-03T17:30:27.879Z,101082.78
2023-03-03T17:32:55.663Z,101085.84
2023-03-03T17:35:23.882Z,101090.66
2023-03-03T17:37:51.645Z,101086.19
2023-03-03T17:40:21.000Z,101088.91
2023-03-03T17:45:19.039Z,101085.91
2023-03-03T17:47:46.887Z,101081.00
2023-03-03T17:50:26.671Z,101081.69
2023-03-03T17:52:54.496Z,101081.53
2023-03-03T17:55:23.174Z,101077.78
2023-03-03T17:59:10.183Z,101084.09
2023-03-03T18:01:38.901Z,101087.34
2023-03-03T18:04:07.536Z,101079.19
2023-03-03T18:06:35.423Z,101081.41
2023-03-03T18:09:14.139Z,101086.44
2023-03-03T18:11:42.490Z,101086.19
2023-03-03T18:14:10.253Z,101088.00
2023-03-03T18:16:38.213Z,101084.41
2023-03-03T18:19:05.961Z,101087.13
2023-03-03T18:21:35.230Z,101089.53
2023-03-03T18:24:03.124Z,101075.66
2023-03-03T18:26:31.080Z,101079.59
2023-03-03T18:28:58.961Z,101084.22
2023-03-03T18:31:26.855Z,101085.13
2023-03-03T18:33:54.595Z,101083.53
2023-03-03T18:36:22.358Z,101072.50
2023-03-03T18:38:50.093Z,101077.75
2023-03-03T18:41:17.860Z,101075.56
2023-03-03T18:43:48.822Z,101079.81
2023-03-03T18:46:16.830Z,101085.25
2023-03-03T18:48:44.975Z,101089.19
2023-03-03T18:51:13.107Z,101091.06
2023-03-03T18:53:40.819Z,101086.28
2023-03-03T18:56:08.728Z,101089.34
2023-03-03T18:58:36.699Z,101086.56
2023-03-03T19:01:04.508Z,101087.22
2023-03-03T19:03:32.329Z,101093.03
2023-03-03T19:06:00.414Z,101087.19
2023-03-03T19:08:28.260Z,101084.94
2023-03-03T19:10:56.029Z,101084.38
2023-03-03T19:13:23.878Z,101089.78
2023-03-03T19:15:51.678Z,101086.72
2023-03-03T19:18:19.433Z,101087.47
2023-03-03T19:20:48.139Z,101085.22
2023-03-03T19:23:18.773Z,101083.00
2023-03-03T19:25:46.550Z,101085.28
2023-03-03T19:28:14.310Z,101088.13
2023-03-03T19:30:42.338Z,101088.09
2023-03-03T19:33:10.542Z,101097.72
2023-03-03T19:35:38.344Z,101090.34
2023-03-03T19:38:06.389Z,101086.97
2023-03-03T19:40:34.279Z,101089.69
2023-03-03T19:43:29.916Z,101084.25
2023-03-03T19:45:57.719Z,101082.38
2023-03-03T19:48:25.525Z,101080.34
2023-03-03T19:50:53.248Z,101081.66
2023-03-03T19:53:21.066Z,101083.41
2023-03-03T19:55:48.821Z,101073.19
2023-03-03T19:58:18.398Z,101072.66
2023-03-03T20:02:37.837Z,101086.34
2023-03-03T20:05:06.159Z,101078.81
2023-03-03T20:07:40.816Z,101078.25
2023-03-03T20:10:08.692Z,101077.41
2023-03-03T20:12:36.684Z,101084.41
2023-03-03T20:17:19.206Z,101082.25
2023-03-03T20:19:47.080Z,101080.38
2023-03-03T20:22:17.740Z,101078.69
2023-03-03T20:24:46.167Z,101073.69
2023-03-03T20:27:14.089Z,101078.28
2023-03-03T20:29:41.963Z,101087.88
2023-03-03T20:32:11.295Z,101085.81
2023-03-03T20:34:39.120Z,101084.25
2023-03-03T20:37:06.909Z,101075.72
2023-03-03T20:39:34.703Z,101078.59
2023-03-03T20:42:06.189Z,101084.72
2023-03-03T20:44:33.951Z,101084.31
2023-03-03T20:47:01.766Z,101081.59
2023-03-03T20:49:32.429Z,101082.78
2023-03-03T20:52:00.500Z,101083.47
2023-03-03T20:54:30.319Z,101081.59
2023-03-03T20:56:58.234Z,101086.06
2023-03-03T20:59:27.519Z,101087.91
2023-03-03T21:01:59.232Z,101073.78
2023-03-03T21:04:50.792Z,101090.91
2023-03-03T21:07:39.480Z,101081.06
2023-03-03T21:10:10.074Z,101081.91
2023-03-03T21:12:40.819Z,101089.53
2023-03-03T21:16:41.159Z,101085.97
2023-03-03T21:19:10.327Z,101079.28
2023-03-03T21:21:38.138Z,101080.75
2023-03-03T21:24:05.852Z,101079.34
2023-03-03T21:26:33.652Z,101074.25
2023-03-03T21:29:03.502Z,101077.25
2023-03-03T21:31:34.048Z,101069.09
2023-03-03T21:34:04.617Z,101063.97
2023-03-03T21:36:32.557Z,101067.53
2023-03-03T21:39:02.244Z,101071.41
2023-03-03T21:41:30.514Z,101062.28
2023-03-03T21:44:02.112Z,101064.44
2023-03-03T21:46:30.005Z,101057.44
2023-03-03T21:48:57.853Z,101062.03
2023-03-03T21:51:28.832Z,101061.19
2023-03-03T21:53:56.573Z,101055.75
2023-03-03T21:56:24.496Z,101055.03
2023-03-03T21:58:52.216Z,101048.91
2023-03-03T22:01:19.955Z,101046.19
2023-03-03T22:03:48.741Z,101043.78
2023-03-03T22:06:16.527Z,101037.28
2023-03-03T22:08:44.272Z,101041.38
2023-03-03T22:11:12.661Z,101034.09
2023-03-03T22:13:41.499Z,101036.41
2023-03-03T22:16:09.294Z,101041.38
2023-03-03T22:18:37.115Z,101031.53
2023-03-03T22:21:05.807Z,101041.84
2023-03-03T22:23:33.724Z,101035.25
2023-03-03T22:26:02.183Z,101034.56
2023-03-03T22:28:30.298Z,101031.16
2023-03-03T22:30:58.198Z,101031.16
2023-03-03T22:33:25.966Z,101034.31
2023-03-03T22:35:53.858Z,101035.16
2023-03-03T22:38:23.754Z,101029.16
2023-03-03T22:40:51.664Z,101029.59
2023-03-03T22:43:19.463Z,101031.28
2023-03-03T22:45:47.723Z,101033.44
2023-03-03T22:48:15.641Z,101026.28
2023-03-03T22:50:45.195Z,101028.16
2023-03-03T22:53:12.974Z,101023.88
2023-03-03T22:55:40.776Z,101019.59
2023-03-03T22:58:09.519Z,101013.34
2023-03-03T23:00:38.448Z,101010.94
2023-03-03T23:03:06.183Z,101012.09
2023-03-03T23:05:34.099Z,101014.50
2023-03-03T23:08:02.237Z,101005.66
2023-03-03T23:10:30.035Z,101004.50
2023-03-03T23:12:57.869Z,100995.50
2023-03-03T23:15:26.034Z,100999.06
2023-03-03T23:17:53.760Z,100997.81
2023-03-03T23:20:21.540Z,100991.56
2023-03-03T23:22:49.370Z,100985.09
2023-03-03T23:25:17.137Z,100984.44
2023-03-03T23:27:45.001Z,100981.72
2023-03-03T23:30:12.716Z,100985.41
2023-03-03T23:32:40.489Z,100980.31
2023-03-03T23:35:08.194Z,100982.31
2023-03-03T23:37:35.967Z,100976.88
2023-03-03T23:40:03.694Z,100968.75
2023-03-03T23:42:31.837Z,100969.06
2023-03-03T23:44:59.667Z,100966.75
2023-03-03T23:47:27.384Z,100959.75
2023-03-03T23:49:55.203Z,100954.66
2023-03-03T23:52:22.949Z,100961.06
2023-03-03T23:54:51.495Z,100948.91
2023-03-03T23:57:19.418Z,100955.34
2023-03-03T23:59:49.339Z,100949.06
